Time;durP1;ratioP1;P1;durP2;ratioP2;P2;SDS_P1;SDS_P2;PMS_P1;PMS_P2;Temp;Humidity;BMP_temperature;BMP_pressure;BME280_temperature;BME280_humidity;BME280_pressure;Samples;Min_cycle;Max_cycle;Signal;HPM_P1;HPM_P2
2023/04/26 00:02:07;;;;;;;6.90;1.70;;;4.70;99.90;;;;;;5038590;28;20041;-71
2023/04/26 00:04:32;;;;;;;6.35;1.83;;;4.70;99.90;;;;;;5038638;28;20041;-71
2023/04/26 00:06:59;;;;;;;10.77;1.92;;;4.60;99.90;;;;;;5038708;28;20056;-71
2023/04/26 00:09:25;;;;;;;8.52;2.25;;;4.60;99.90;;;;;;5038524;28;20555;-71
2023/04/26 00:11:50;;;;;;;8.52;2.15;;;4.60;99.90;;;;;;5038433;28;20041;-71
2023/04/26 00:14:16;;;;;;;12.35;2.00;;;4.60;99.90;;;;;;5038678;28;20515;-71
2023/04/26 00:16:42;;;;;;;7.60;1.63;;;4.70;99.90;;;;;;5038658;28;20496;-71
2023/04/26 00:19:08;;;;;;;7.32;2.22;;;4.70;99.90;;;;;;5021900;28;20513;-71
2023/04/26 00:21:34;;;;;;;9.00;2.20;;;4.80;99.90;;;;;;5038236;28;20049;-71
2023/04/26 00:24:00;;;;;;;13.88;2.80;;;4.80;99.90;;;;;;5038202;28;20037;-71
2023/04/26 00:26:25;;;;;;;11.15;2.13;;;4.80;99.90;;;;;;5038160;28;20064;-71
2023/04/26 00:28:51;;;;;;;9.68;2.10;;;4.80;99.90;;;;;;5038477;28;20037;-71
2023/04/26 00:31:17;;;;;;;9.23;2.38;;;4.90;99.90;;;;;;5021611;28;20497;-71
2023/04/26 00:33:43;;;;;;;12.68;2.45;;;4.90;99.90;;;;;;5037990;28;20044;-71
2023/04/26 00:36:09;;;;;;;10.50;2.28;;;4.90;99.90;;;;;;5037921;28;20056;-71
2023/04/26 00:38:35;;;;;;;6.90;1.70;;;5.00;99.90;;;;;;5038176;28;20128;-71
2023/04/26 00:41:00;;;;;;;8.20;1.70;;;5.00;99.90;;;;;;5038110;28;20099;-71
2023/04/26 00:43:26;;;;;;;9.05;1.80;;;5.00;99.90;;;;;;5037819;28;20515;-71
2023/04/26 00:45:52;;;;;;;10.98;2.35;;;5.10;99.90;;;;;;5021483;28;20045;-71
2023/04/26 00:48:18;;;;;;;10.75;1.90;;;5.10;99.90;;;;;;5037692;28;20179;-71
2023/04/26 00:50:44;;;;;;;7.80;2.38;;;5.10;99.90;;;;;;5037851;28;20110;-71
2023/04/26 00:53:13;;;;;;;8.85;1.85;;;5.10;99.90;;;;;;5037887;28;20493;-71
2023/04/26 00:55:40;;;;;;;8.75;2.38;;;5.10;99.90;;;;;;5037898;28;20048;-71
2023/04/26 00:58:05;;;;;;;5.93;1.63;;;5.10;99.90;;;;;;5037512;28;20055;-71
2023/04/26 01:00:31;;;;;;;11.95;1.98;;;5.10;99.90;;;;;;5037541;28;20037;-71
2023/04/26 01:02:57;;;;;;;13.27;2.83;;;5.10;99.90;;;;;;5020092;28;20041;-71
2023/04/26 01:05:23;;;;;;;15.88;2.22;;;5.00;99.90;;;;;;5037718;28;20044;-71
2023/04/26 01:07:49;;;;;;;13.07;2.20;;;4.90;99.90;;;;;;5037313;28;20513;-71
2023/04/26 01:10:16;;;;;;;9.40;1.85;;;4.90;99.90;;;;;;5037468;28;20045;-71
2023/04/26 01:12:42;;;;;;;7.00;2.30;;;4.90;99.90;;;;;;5037551;28;20090;-71
2023/04/26 01:15:09;;;;;;;6.93;1.80;;;4.80;99.90;;;;;;5037547;28;20432;-71
2023/04/26 01:17:36;;;;;;;9.00;2.30;;;4.80;99.90;;;;;;5037438;28;20048;-71
2023/04/26 01:20:02;;;;;;;10.20;1.80;;;4.70;99.90;;;;;;5037172;28;20041;-71
2023/04/26 01:22:32;;;;;;;8.63;2.10;;;4.70;99.90;;;;;;5037291;28;20037;-71
2023/04/26 01:25:00;;;;;;;9.25;2.30;;;4.60;99.90;;;;;;5037369;28;20475;-71
2023/04/26 01:27:26;;;;;;;9.07;2.53;;;4.50;99.90;;;;;;5036965;28;20119;-71
2023/04/26 01:29:52;;;;;;;12.65;2.25;;;4.50;99.90;;;;;;5036962;28;20136;-71
2023/04/26 01:32:18;;;;;;;6.35;1.73;;;4.50;99.90;;;;;;5036913;28;20041;-71
2023/04/26 01:34:44;;;;;;;9.98;2.42;;;4.50;99.90;;;;;;5036925;28;20082;-71
2023/04/26 01:37:10;;;;;;;9.30;2.20;;;4.40;99.90;;;;;;5036815;28;20041;-71
2023/04/26 01:39:35;;;;;;;6.18;2.00;;;4.40;99.90;;;;;;5037012;28;20443;-71
2023/04/26 01:42:03;;;;;;;9.60;2.70;;;4.30;99.90;;;;;;5036794;28;20572;-71
2023/04/26 01:44:29;;;;;;;6.05;1.98;;;4.30;99.90;;;;;;5036690;28;20048;-71
2023/04/26 01:46:54;;;;;;;7.85;1.90;;;4.30;99.90;;;;;;5036535;28;20048;-71
2023/04/26 01:49:20;;;;;;;9.77;1.85;;;4.40;99.90;;;;;;5020359;28;20094;-71
2023/04/26 01:51:46;;;;;;;14.32;2.35;;;4.30;99.90;;;;;;5036600;28;20448;-70
2023/04/26 01:54:11;;;;;;;7.95;2.08;;;4.30;99.90;;;;;;5036589;28;20489;-71
2023/04/26 01:56:37;;;;;;;12.50;1.90;;;4.30;99.90;;;;;;5036456;28;20047;-71
2023/04/26 01:59:02;;;;;;;8.05;1.80;;;4.40;99.90;;;;;;5036480;28;20067;-71
2023/04/26 02:01:28;;;;;;;8.50;1.88;;;4.40;99.90;;;;;;5019932;28;20114;-71
2023/04/26 02:03:54;;;;;;;11.65;1.83;;;4.50;99.90;;;;;;5019919;28;20037;-71
2023/04/26 02:06:20;;;;;;;7.60;1.92;;;4.50;99.90;;;;;;5036224;28;20052;-71
2023/04/26 02:08:46;;;;;;;7.72;2.15;;;4.50;99.90;;;;;;5036257;28;20055;-71
2023/04/26 02:11:11;;;;;;;7.45;2.10;;;4.60;99.90;;;;;;5036159;28;20116;-70
2023/04/26 02:13:37;;;;;;;9.77;2.30;;;4.60;99.90;;;;;;5036093;28;20119;-70
2023/04/26 02:16:03;;;;;;;8.95;2.45;;;4.70;99.90;;;;;;5037087;28;20045;-71
2023/04/26 02:18:28;;;;;;;9.20;2.03;;;4.70;99.90;;;;;;5037011;28;20535;-70
2023/04/26 02:20:54;;;;;;;5.88;1.60;;;4.70;99.90;;;;;;5036046;28;20499;-71
2023/04/26 02:23:20;;;;;;;11.70;2.03;;;4.70;99.90;;;;;;5036205;28;20041;-71
2023/04/26 02:25:47;;;;;;;7.18;1.70;;;4.70;99.90;;;;;;5035922;28;20079;-71
2023/04/26 02:28:14;;;;;;;7.28;1.85;;;4.70;99.90;;;;;;5035818;28;20045;-71
2023/04/26 02:30:41;;;;;;;9.48;2.00;;;4.70;99.90;;;;;;5019520;28;20378;-71
2023/04/26 02:33:07;;;;;;;9.63;1.85;;;4.70;99.90;;;;;;5035852;28;20412;-71
2023/04/26 02:35:35;;;;;;;8.88;2.08;;;4.70;99.90;;;;;;5019326;28;20040;-71
2023/04/26 02:38:00;;;;;;;5.07;1.50;;;4.60;99.90;;;;;;5019148;28;20516;-70
2023/04/26 02:40:26;;;;;;;7.38;1.50;;;4.60;99.90;;;;;;5035967;28;20045;-70
2023/04/26 02:42:52;;;;;;;8.20;1.85;;;4.60;99.90;;;;;;5035877;28;20051;-70
2023/04/26 02:45:17;;;;;;;8.60;2.58;;;4.60;99.90;;;;;;5035570;28;20476;-70
2023/04/26 02:47:43;;;;;;;7.43;1.77;;;4.60;99.90;;;;;;5035425;28;20053;-70
2023/04/26 02:50:09;;;;;;;12.35;2.13;;;4.60;99.90;;;;;;5035491;28;20043;-70
2023/04/26 02:52:38;;;;;;;7.82;2.88;;;4.60;99.90;;;;;;5035402;28;20033;-71
2023/04/26 02:55:04;;;;;;;5.70;1.70;;;4.60;99.90;;;;;;5035516;28;20122;-71
2023/04/26 02:57:30;;;;;;;8.95;2.25;;;4.50;99.90;;;;;;5035300;28;20440;-70
2023/04/26 02:59:57;;;;;;;8.70;1.90;;;4.50;99.90;;;;;;5035345;28;20040;-71
2023/04/26 03:02:23;;;;;;;8.43;1.90;;;4.50;99.90;;;;;;5035368;28;20072;-71
2023/04/26 03:04:49;;;;;;;8.95;1.80;;;4.50;99.90;;;;;;5035531;28;20075;-71
2023/04/26 03:07:15;;;;;;;6.53;1.98;;;4.40;99.90;;;;;;5035244;28;20512;-71
2023/04/26 03:09:41;;;;;;;14.50;2.30;;;4.30;99.90;;;;;;5035264;28;20497;-71
2023/04/26 03:12:07;;;;;;;7.20;1.88;;;4.30;99.90;;;;;;5035096;28;20132;-71
2023/04/26 03:14:33;;;;;;;8.60;1.77;;;4.30;99.90;;;;;;5035373;28;20045;-70
2023/04/26 03:17:00;;;;;;;7.78;1.65;;;4.30;99.90;;;;;;5035589;28;20068;-71
2023/04/26 03:19:28;;;;;;;9.65;2.25;;;4.30;99.90;;;;;;5035104;28;20033;-71
2023/04/26 03:21:55;;;;;;;8.05;1.80;;;4.30;99.90;;;;;;5035350;28;20182;-71
2023/04/26 03:24:21;;;;;;;7.00;1.83;;;4.20;99.90;;;;;;5035318;28;20055;-71
2023/04/26 03:26:46;;;;;;;8.88;1.83;;;4.20;99.90;;;;;;5034934;28;20115;-71
2023/04/26 03:29:12;;;;;;;6.13;2.00;;;4.20;99.90;;;;;;5035063;28;20489;-71
2023/04/26 03:31:38;;;;;;;5.00;1.75;;;4.10;99.90;;;;;;5034922;28;20045;-71
2023/04/26 03:34:04;;;;;;;10.45;1.80;;;4.00;99.90;;;;;;5034962;28;20037;-71
2023/04/26 03:36:30;;;;;;;8.48;2.15;;;4.00;99.90;;;;;;5034870;28;20124;-71
2023/04/26 03:38:55;;;;;;;6.57;2.28;;;3.90;99.90;;;;;;5034923;28;20124;-71
2023/04/26 03:41:21;;;;;;;5.13;1.60;;;3.80;99.90;;;;;;5018502;28;20123;-71
2023/04/26 03:43:47;;;;;;;4.88;1.80;;;3.80;99.90;;;;;;5034916;28;20088;-71
2023/04/26 03:46:13;;;;;;;6.60;1.80;;;3.80;99.90;;;;;;5018198;28;20041;-71
2023/04/26 03:48:39;;;;;;;7.30;1.88;;;3.80;99.90;;;;;;5018627;28;20041;-71
2023/04/26 03:51:05;;;;;;;12.90;2.25;;;3.90;99.90;;;;;;5034720;28;20532;-71
2023/04/26 03:53:31;;;;;;;7.35;2.08;;;3.90;99.90;;;;;;5034815;28;20040;-71
2023/04/26 03:55:57;;;;;;;9.35;2.05;;;3.90;99.90;;;;;;5034701;28;20045;-71
2023/04/26 03:58:24;;;;;;;5.82;2.20;;;3.90;99.90;;;;;;5034974;28;20071;-70
2023/04/26 04:00:50;;;;;;;7.00;1.95;;;3.80;99.90;;;;;;5034999;28;20048;-71
2023/04/26 04:03:16;;;;;;;10.55;2.55;;;3.80;99.90;;;;;;5034690;28;20456;-71
2023/04/26 04:05:41;;;;;;;7.70;2.10;;;3.80;99.90;;;;;;5018300;28;20037;-71
2023/04/26 04:08:07;;;;;;;8.02;2.15;;;3.90;99.90;;;;;;5034664;28;20144;-71
2023/04/26 04:10:32;;;;;;;7.65;2.00;;;3.90;99.90;;;;;;5034568;28;20037;-71
2023/04/26 04:12:58;;;;;;;7.88;2.30;;;3.90;99.90;;;;;;5018200;28;20036;-71
2023/04/26 04:15:24;;;;;;;6.72;2.00;;;3.90;99.90;;;;;;5034630;28;20076;-71
2023/04/26 04:17:49;;;;;;;7.85;2.00;;;3.90;99.90;;;;;;5034526;28;20041;-71
2023/04/26 04:20:15;;;;;;;6.80;1.65;;;4.00;99.90;;;;;;5018023;28;20029;-71
2023/04/26 04:22:41;;;;;;;6.13;2.30;;;4.00;99.90;;;;;;5034869;28;20068;-70
2023/04/26 04:25:09;;;;;;;6.03;1.98;;;4.00;99.90;;;;;;5018374;28;20040;-71
2023/04/26 04:27:35;;;;;;;5.70;1.92;;;4.10;99.90;;;;;;5034389;28;20037;-70
2023/04/26 04:30:02;;;;;;;7.80;2.00;;;4.10;99.90;;;;;;5034715;28;20075;-70
2023/04/26 04:32:31;;;;;;;8.80;2.08;;;4.00;99.90;;;;;;5034437;28;20052;-71
2023/04/26 04:34:57;;;;;;;5.30;2.10;;;4.00;99.90;;;;;;5018011;28;20440;-71
2023/04/26 04:37:24;;;;;;;7.07;2.03;;;4.00;99.90;;;;;;5034653;28;20440;-70
2023/04/26 04:39:53;;;;;;;8.38;2.05;;;4.00;99.90;;;;;;5037354;28;20144;-71
2023/04/26 04:42:18;;;;;;;11.02;2.53;;;4.00;99.90;;;;;;5037808;28;20041;-71
2023/04/26 04:44:45;;;;;;;7.68;2.47;;;4.00;99.90;;;;;;5038107;28;20040;-71
2023/04/26 04:47:12;;;;;;;12.20;3.13;;;4.00;99.90;;;;;;5021088;28;20489;-71
2023/04/26 04:49:38;;;;;;;8.10;2.33;;;4.00;99.90;;;;;;5037790;28;20393;-71
2023/04/26 04:52:05;;;;;;;4.57;1.80;;;4.00;99.90;;;;;;5021144;28;20066;-71
2023/04/26 04:54:31;;;;;;;8.73;2.40;;;4.00;99.90;;;;;;5021317;28;20040;-70
2023/04/26 04:56:56;;;;;;;5.80;1.80;;;4.00;99.90;;;;;;5037609;28;20041;-70
2023/04/26 04:59:22;;;;;;;9.50;2.13;;;4.00;99.90;;;;;;5037894;28;20048;-71
2023/04/26 05:01:49;;;;;;;5.45;2.08;;;4.00;99.90;;;;;;5037557;28;20044;-71
2023/04/26 05:04:15;;;;;;;8.35;2.20;;;4.10;99.90;;;;;;5037492;28;20126;-71
2023/04/26 05:06:40;;;;;;;6.07;2.13;;;4.10;99.90;;;;;;5037359;28;20080;-71
2023/04/26 05:09:07;;;;;;;9.75;1.83;;;4.20;99.90;;;;;;5037308;28;20080;-71
2023/04/26 05:11:32;;;;;;;5.82;1.92;;;4.20;99.90;;;;;;5020901;28;20041;-71
2023/04/26 05:13:58;;;;;;;8.80;2.60;;;4.30;99.90;;;;;;5037577;28;20040;-71
2023/04/26 05:16:24;;;;;;;9.75;2.25;;;4.40;99.90;;;;;;5037234;28;20563;-71
2023/04/26 05:18:49;;;;;;;5.85;2.40;;;4.40;99.90;;;;;;5037205;28;20068;-71
2023/04/26 05:21:15;;;;;;;7.82;2.13;;;4.50;99.90;;;;;;5021251;28;20076;-71
2023/04/26 05:23:41;;;;;;;9.27;2.65;;;4.60;99.90;;;;;;5037392;28;20497;-71
2023/04/26 05:26:07;;;;;;;10.05;1.83;;;4.60;99.90;;;;;;5037001;28;20461;-71
2023/04/26 05:28:33;;;;;;;9.38;2.78;;;4.70;99.90;;;;;;5037078;28;20124;-71
2023/04/26 05:31:00;;;;;;;8.35;1.85;;;4.70;99.90;;;;;;5037120;28;20119;-71
2023/04/26 05:33:27;;;;;;;7.97;1.98;;;4.80;99.90;;;;;;5036923;28;20037;-71
2023/04/26 05:35:53;;;;;;;8.95;2.20;;;4.80;99.90;;;;;;5020382;28;20033;-71
2023/04/26 05:38:19;;;;;;;6.93;2.08;;;4.90;99.90;;;;;;5036799;28;20076;-71
2023/04/26 05:40:47;;;;;;;8.55;2.38;;;4.90;99.90;;;;;;5036770;28;20041;-71
2023/04/26 05:43:12;;;;;;;9.85;2.10;;;5.00;99.90;;;;;;5036745;28;20080;-71
2023/04/26 05:45:38;;;;;;;8.25;2.15;;;5.00;99.90;;;;;;5036911;28;20079;-71
2023/04/26 05:48:04;;;;;;;6.90;2.60;;;5.10;99.90;;;;;;5036682;28;20501;-71
2023/04/26 05:50:30;;;;;;;9.48;2.17;;;5.20;99.90;;;;;;5035966;28;20045;-71
2023/04/26 05:52:56;;;;;;;12.75;2.22;;;5.30;99.90;;;;;;5020140;28;20037;-70
2023/04/26 05:55:21;;;;;;;7.18;2.35;;;5.30;99.90;;;;;;5020305;28;20044;-71
2023/04/26 05:57:47;;;;;;;7.80;1.75;;;5.40;99.90;;;;;;5036401;28;20032;-70
2023/04/26 06:00:14;;;;;;;9.98;2.03;;;5.50;99.90;;;;;;5036545;28;20060;-71
2023/04/26 06:02:40;;;;;;;9.18;1.83;;;5.60;99.90;;;;;;5036460;28;20041;-70
2023/04/26 06:05:07;;;;;;;6.47;1.77;;;5.70;99.90;;;;;;5021066;28;20037;-71
2023/04/26 06:07:32;;;;;;;8.35;1.85;;;5.80;99.90;;;;;;5019942;28;20120;-71
2023/04/26 06:10:00;;;;;;;7.90;1.65;;;5.90;99.90;;;;;;5036614;28;20110;-71
2023/04/26 06:12:25;;;;;;;4.95;1.58;;;6.00;99.90;;;;;;5019795;28;20147;-71
2023/04/26 06:14:51;;;;;;;9.40;1.90;;;6.00;99.90;;;;;;5036521;28;20073;-71
2023/04/26 06:17:17;;;;;;;10.57;1.50;;;6.10;99.90;;;;;;5036412;28;20401;-71
2023/04/26 06:19:42;;;;;;;5.80;1.45;;;6.10;99.90;;;;;;5036099;28;20037;-71
2023/04/26 06:22:08;;;;;;;6.00;1.63;;;6.20;99.90;;;;;;5036092;28;20041;-71
2023/04/26 06:24:33;;;;;;;7.68;2.10;;;6.20;99.90;;;;;;5036070;28;20144;-71
2023/04/26 06:26:59;;;;;;;8.10;1.85;;;6.30;99.90;;;;;;5035981;28;20040;-71
2023/04/26 06:29:25;;;;;;;6.50;1.50;;;6.30;99.90;;;;;;5035910;28;20033;-70
2023/04/26 06:31:50;;;;;;;8.50;2.35;;;6.30;99.90;;;;;;5035830;28;20049;-71
2023/04/26 06:34:16;;;;;;;6.55;1.73;;;6.30;99.90;;;;;;5019452;28;20037;-70
2023/04/26 06:36:41;;;;;;;5.35;1.42;;;6.40;99.90;;;;;;5019324;28;20037;-71
2023/04/26 06:39:07;;;;;;;8.00;1.77;;;6.40;99.90;;;;;;5036080;28;20040;-71
2023/04/26 06:41:32;;;;;;;6.60;1.80;;;6.50;99.90;;;;;;5036067;28;20037;-71
2023/04/26 06:43:58;;;;;;;7.78;1.63;;;6.60;99.90;;;;;;5035735;28;20477;-70
2023/04/26 06:46:24;;;;;;;7.75;1.70;;;6.60;99.90;;;;;;5035800;28;20070;-70
2023/04/26 06:48:53;;;;;;;7.13;1.90;;;6.70;99.90;;;;;;5035631;28;20515;-71
2023/04/26 06:51:18;;;;;;;9.63;2.13;;;6.80;99.90;;;;;;5035509;28;20056;-71
2023/04/26 06:53:44;;;;;;;10.65;2.10;;;6.80;99.90;;;;;;5036075;28;20037;-70
2023/04/26 06:56:10;;;;;;;7.03;1.85;;;6.80;99.90;;;;;;5035511;28;20037;-71
2023/04/26 06:58:35;;;;;;;8.68;2.38;;;6.80;99.90;;;;;;5035602;28;20032;-70
2023/04/26 07:01:01;;;;;;;7.65;1.60;;;6.80;99.90;;;;;;5034876;28;20040;-71
2023/04/26 07:03:27;;;;;;;7.47;2.00;;;6.90;99.90;;;;;;5019131;28;20068;-71
2023/04/26 07:05:55;;;;;;;6.80;2.15;;;7.00;99.90;;;;;;5035419;28;20045;-71
2023/04/26 07:08:20;;;;;;;5.28;1.80;;;7.00;99.90;;;;;;5035518;28;20123;-70
2023/04/26 07:10:46;;;;;;;7.70;1.45;;;7.10;99.90;;;;;;5035322;28;20536;-71
2023/04/26 07:13:12;;;;;;;7.60;1.63;;;7.10;99.90;;;;;;5035301;28;20047;-70
2023/04/26 07:15:37;;;;;;;10.13;1.95;;;7.20;99.90;;;;;;5035636;28;20040;-70
2023/04/26 07:18:03;;;;;;;4.47;2.03;;;7.30;99.90;;;;;;5035192;28;20406;-70
2023/04/26 07:20:29;;;;;;;4.47;1.77;;;7.30;99.90;;;;;;5035480;28;20041;-71
2023/04/26 07:22:54;;;;;;;6.50;1.55;;;7.40;99.90;;;;;;5035083;28;20551;-71
2023/04/26 07:25:20;;;;;;;7.68;2.00;;;7.50;99.90;;;;;;5035412;28;20049;-71
2023/04/26 07:27:45;;;;;;;6.10;1.90;;;7.70;99.90;;;;;;5035109;28;20470;-71
2023/04/26 07:30:11;;;;;;;9.60;1.77;;;7.80;99.90;;;;;;5035373;28;20048;-71
2023/04/26 07:32:37;;;;;;;6.65;1.90;;;7.90;99.90;;;;;;5034883;28;20047;-70
2023/04/26 07:35:06;;;;;;;8.05;1.98;;;8.00;99.90;;;;;;5034967;28;20072;-70
2023/04/26 07:37:32;;;;;;;6.95;1.67;;;8.10;99.90;;;;;;5034929;28;20044;-71
2023/04/26 07:39:58;;;;;;;6.60;1.83;;;8.20;99.90;;;;;;5035020;28;20033;-71
2023/04/26 07:42:24;;;;;;;5.55;1.95;;;8.30;99.90;;;;;;5035716;28;20186;-71
2023/04/26 07:44:49;;;;;;;7.28;1.75;;;8.30;99.90;;;;;;5018512;28;20045;-71
2023/04/26 07:47:15;;;;;;;8.50;1.80;;;8.30;99.90;;;;;;5035005;28;20045;-69
2023/04/26 07:49:41;;;;;;;5.93;1.60;;;8.30;99.90;;;;;;5018429;28;20425;-70
2023/04/26 07:52:10;;;;;;;7.70;1.75;;;8.30;99.90;;;;;;5018346;28;20128;-71
2023/04/26 07:54:35;;;;;;;7.82;1.80;;;8.40;99.70;;;;;;5034834;28;20037;-71
2023/04/26 07:57:01;;;;;;;7.95;1.85;;;8.50;99.30;;;;;;5034696;28;20128;-71
2023/04/26 07:59:27;;;;;;;7.00;1.30;;;8.60;98.70;;;;;;5034876;28;20045;-71
2023/04/26 08:01:53;;;;;;;12.40;1.58;;;8.70;98.40;;;;;;5035091;28;20041;-71
2023/04/26 08:04:31;;;;;;;6.47;1.42;;;8.80;97.80;;;;;;5034730;28;20466;-71
2023/04/26 08:06:57;;;;;;;7.05;1.20;;;8.90;97.00;;;;;;5034649;28;20497;-71
2023/04/26 08:09:23;;;;;;;5.75;1.50;;;9.00;96.10;;;;;;5034782;28;20120;-71
2023/04/26 08:11:48;;;;;;;9.10;1.70;;;9.00;95.90;;;;;;5034570;28;20103;-70
2023/04/26 08:14:14;;;;;;;8.52;1.85;;;9.20;96.30;;;;;;5021724;28;20044;-71
2023/04/26 08:16:40;;;;;;;7.75;1.90;;;9.30;95.50;;;;;;5038443;28;20120;-71
2023/04/26 08:19:06;;;;;;;6.43;1.40;;;9.30;95.20;;;;;;5022772;28;20051;-71
2023/04/26 08:21:31;;;;;;;5.68;1.38;;;9.50;95.30;;;;;;5038314;28;20564;-71
2023/04/26 08:23:57;;;;;;;5.05;1.27;;;9.50;94.40;;;;;;5038399;28;20036;-70
2023/04/26 08:26:22;;;;;;;9.18;1.20;;;9.40;92.90;;;;;;5022106;28;20033;-70
2023/04/26 08:28:48;;;;;;;6.97;1.35;;;9.40;92.80;;;;;;5022048;28;20490;-71
2023/04/26 08:31:14;;;;;;;6.75;1.13;;;9.40;92.70;;;;;;5038134;28;20525;-70
2023/04/26 08:33:39;;;;;;;9.60;1.70;;;9.50;92.50;;;;;;5038431;28;20037;-71
2023/04/26 08:36:05;;;;;;;4.47;1.20;;;9.50;92.10;;;;;;5038163;28;20045;-71
2023/04/26 08:38:31;;;;;;;7.32;1.30;;;9.60;91.80;;;;;;5021775;28;20033;-71
2023/04/26 08:41:01;;;;;;;6.20;1.48;;;9.70;91.90;;;;;;5038023;28;20045;-71
2023/04/26 08:43:28;;;;;;;7.03;1.27;;;9.80;90.90;;;;;;5021494;28;20072;-71
2023/04/26 08:45:55;;;;;;;8.32;1.42;;;9.80;90.30;;;;;;5037799;28;20080;-71
2023/04/26 08:48:20;;;;;;;6.15;1.40;;;9.90;90.30;;;;;;5038054;28;20049;-71
2023/04/26 08:50:47;;;;;;;5.25;1.15;;;9.90;89.20;;;;;;5037784;28;20159;-71
2023/04/26 08:53:17;;;;;;;7.03;1.25;;;9.90;88.30;;;;;;5038036;28;20044;-71
2023/04/26 08:55:49;;;;;;;5.03;1.40;;;9.90;87.60;;;;;;5037963;28;20047;-71
2023/04/26 08:58:17;;;;;;;5.50;1.73;;;9.90;88.20;;;;;;5037552;28;20041;-71
2023/04/26 09:00:46;;;;;;;5.55;1.42;;;10.00;87.40;;;;;;5037644;28;20557;-71
2023/04/26 09:03:12;;;;;;;4.63;1.30;;;10.00;87.70;;;;;;5037804;28;20076;-71
2023/04/26 09:05:42;;;;;;;5.45;1.50;;;10.10;86.90;;;;;;5037461;28;20512;-71
2023/04/26 09:08:10;;;;;;;5.55;1.17;;;10.10;86.90;;;;;;5037462;28;20045;-71
2023/04/26 09:10:36;;;;;;;4.43;1.20;;;10.10;85.30;;;;;;5037342;28;20497;-71
2023/04/26 09:13:02;;;;;;;9.05;1.23;;;10.00;83.60;;;;;;5037363;28;20037;-71
2023/04/26 09:15:27;;;;;;;5.72;1.27;;;9.90;83.60;;;;;;5037706;28;20120;-71
2023/04/26 09:17:53;;;;;;;6.68;1.33;;;9.90;84.20;;;;;;5037307;28;20479;-71
2023/04/26 09:20:25;;;;;;;9.18;1.42;;;10.10;84.90;;;;;;5037340;28;20037;-71
2023/04/26 09:22:52;;;;;;;7.57;1.50;;;10.30;84.30;;;;;;5037592;28;20041;-71
2023/04/26 09:25:29;;;;;;;8.88;2.00;;;10.50;83.10;;;;;;5036341;28;20048;-71
2023/04/26 09:27:55;;;;;;;6.38;1.52;;;10.50;82.10;;;;;;5037130;28;20123;-71
2023/04/26 09:30:21;;;;;;;5.50;1.40;;;10.40;80.90;;;;;;5037056;28;20041;-71
2023/04/26 09:32:58;;;;;;;6.65;1.60;;;10.40;79.90;;;;;;5020550;28;20041;-70
2023/04/26 09:35:32;;;;;;;7.13;1.52;;;10.50;80.10;;;;;;5037285;28;20171;-70
2023/04/26 09:38:00;;;;;;;5.40;1.45;;;10.80;82.60;;;;;;5036887;28;20052;-70
2023/04/26 09:40:28;;;;;;;4.50;1.15;;;10.90;80.30;;;;;;5036888;28;20049;-72
2023/04/26 09:43:05;;;;;;;6.50;1.30;;;10.90;79.20;;;;;;5036845;28;20048;-70
2023/04/26 09:45:32;;;;;;;6.40;1.52;;;11.00;79.20;;;;;;5037092;28;20044;-70
2023/04/26 09:48:20;;;;;;;5.20;1.70;;;10.80;77.30;;;;;;5036826;28;20051;-70
2023/04/26 09:50:49;;;;;;;4.50;1.42;;;10.90;75.10;;;;;;5037141;28;20148;-71
2023/04/26 09:53:36;;;;;;;6.38;1.40;;;10.90;77.80;;;;;;5036654;28;20123;-71
2023/04/26 09:56:12;;;;;;;6.60;1.75;;;11.00;76.80;;;;;;5020210;28;20414;-71
2023/04/26 09:58:57;;;;;;;9.57;2.20;;;11.10;78.00;;;;;;5037035;28;20044;-71
2023/04/26 10:01:23;;;;;;;6.32;1.50;;;11.10;80.30;;;;;;5020081;28;20512;-71
2023/04/26 10:03:48;;;;;;;8.30;2.30;;;11.00;82.00;;;;;;5036766;28;20150;-70
2023/04/26 10:06:15;;;;;;;8.30;1.73;;;10.90;82.80;;;;;;5036677;28;20494;-71
2023/04/26 10:08:41;;;;;;;6.07;1.50;;;10.80;83.10;;;;;;5036318;28;20037;-70
2023/04/26 10:11:10;;;;;;;4.82;1.50;;;10.70;83.10;;;;;;5036211;28;20037;-70
2023/04/26 10:13:36;;;;;;;9.32;1.63;;;10.50;82.80;;;;;;5036548;28;20047;-70
2023/04/26 10:16:02;;;;;;;4.63;1.50;;;10.30;82.70;;;;;;5036253;28;20123;-71
2023/04/26 10:18:29;;;;;;;7.28;1.40;;;10.20;83.30;;;;;;5019569;28;20036;-71
2023/04/26 10:20:59;;;;;;;6.90;1.83;;;9.90;83.50;;;;;;5036388;28;20036;-71
2023/04/26 10:23:26;;;;;;;9.20;1.95;;;9.80;84.60;;;;;;5036172;28;20049;-71
2023/04/26 10:25:53;;;;;;;8.30;1.77;;;9.70;85.00;;;;;;5036349;28;20131;-71
2023/04/26 10:28:38;;;;;;;6.72;1.90;;;9.60;85.60;;;;;;5035955;28;20513;-70
2023/04/26 10:31:05;;;;;;;8.13;1.75;;;9.50;86.00;;;;;;5035953;28;20523;-70
2023/04/26 10:33:31;;;;;;;6.38;1.33;;;9.50;87.10;;;;;;5035940;28;20033;-70
2023/04/26 10:36:03;;;;;;;9.55;1.73;;;9.40;85.60;;;;;;5036104;28;20052;-71
2023/04/26 10:38:30;;;;;;;7.57;1.60;;;9.30;85.30;;;;;;5035777;28;20037;-71
2023/04/26 10:41:15;;;;;;;7.25;1.58;;;9.30;85.00;;;;;;5036107;28;20048;-71
2023/04/26 10:43:41;;;;;;;6.05;1.60;;;9.20;84.50;;;;;;5035529;28;20123;-71
2023/04/26 10:46:33;;;;;;;6.60;1.40;;;9.30;84.90;;;;;;5035825;28;20048;-70
2023/04/26 10:49:12;;;;;;;5.68;1.50;;;9.40;84.40;;;;;;5035696;28;20048;-71
2023/04/26 10:51:38;;;;;;;10.27;2.33;;;9.40;82.70;;;;;;5035690;28;20087;-71
2023/04/26 10:54:03;;;;;;;5.05;1.63;;;9.50;81.70;;;;;;5035625;28;20450;-71
2023/04/26 10:56:29;;;;;;;7.45;1.75;;;9.60;80.90;;;;;;5019085;28;20098;-70
2023/04/26 10:59:12;;;;;;;4.30;1.73;;;9.70;80.40;;;;;;5035721;28;20083;-71
2023/04/26 11:01:39;;;;;;;5.32;1.50;;;9.90;79.30;;;;;;5035704;28;20128;-71
2023/04/26 11:04:11;;;;;;;4.38;1.67;;;10.10;80.40;;;;;;5035446;28;20075;-71
2023/04/26 11:06:51;;;;;;;7.07;1.75;;;10.30;78.60;;;;;;5018814;28;20044;-70
2023/04/26 11:09:36;;;;;;;6.30;1.63;;;10.40;77.50;;;;;;5035272;28;20044;-71
2023/04/26 11:12:11;;;;;;;6.88;2.05;;;10.60;77.20;;;;;;5019826;28;20041;-71
2023/04/26 11:14:37;;;;;;;5.43;1.48;;;10.80;76.90;;;;;;5035244;28;20036;-71
2023/04/26 11:17:10;;;;;;;4.75;1.42;;;11.10;77.20;;;;;;5035148;28;20041;-70
2023/04/26 11:19:36;;;;;;;5.22;1.23;;;11.40;76.40;;;;;;5035190;28;20088;-70
2023/04/26 11:22:02;;;;;;;6.72;1.60;;;11.50;75.60;;;;;;5035153;28;20080;-70
2023/04/26 11:24:32;;;;;;;8.50;1.55;;;11.60;74.60;;;;;;5035335;28;20049;-70
2023/04/26 11:26:58;;;;;;;5.13;1.50;;;11.70;72.80;;;;;;5034942;28;20501;-71
2023/04/26 11:29:24;;;;;;;5.55;1.30;;;11.80;72.40;;;;;;5018974;28;20048;-71
2023/04/26 11:31:55;;;;;;;5.45;1.52;;;11.90;72.90;;;;;;5018478;28;20498;-71
2023/04/26 11:34:34;;;;;;;3.90;1.35;;;12.00;72.00;;;;;;5035150;28;20169;-71
2023/04/26 11:37:04;;;;;;;5.65;1.70;;;12.30;71.70;;;;;;5035287;28;20041;-71
2023/04/26 11:39:36;;;;;;;8.52;1.50;;;12.50;70.80;;;;;;5034968;28;20033;-70
2023/04/26 11:42:08;;;;;;;4.63;1.23;;;12.90;69.70;;;;;;5035036;28;20075;-70
2023/04/26 11:44:34;;;;;;;3.97;1.50;;;13.10;70.60;;;;;;5034921;28;20037;-71
2023/04/26 11:47:02;;;;;;;5.93;1.80;;;13.10;69.70;;;;;;5018588;28;20092;-71
2023/04/26 11:49:32;;;;;;;6.38;1.83;;;13.20;67.90;;;;;;5022780;28;20037;-71
2023/04/26 11:51:58;;;;;;;7.63;1.98;;;13.20;68.20;;;;;;5038989;28;20071;-71
2023/04/26 11:54:34;;;;;;;8.85;2.05;;;13.20;68.90;;;;;;5038894;28;20502;-71
2023/04/26 11:57:01;;;;;;;8.95;1.85;;;13.20;71.20;;;;;;5022571;28;20037;-71
2023/04/26 11:59:28;;;;;;;8.10;1.90;;;13.00;72.80;;;;;;5038785;28;20489;-71
2023/04/26 12:01:57;;;;;;;8.45;2.17;;;12.70;73.10;;;;;;5038741;28;20036;-71
2023/04/26 12:04:30;;;;;;;6.95;1.88;;;12.40;72.80;;;;;;5038737;28;20048;-71
2023/04/26 12:06:55;;;;;;;;;;;12.20;73.60;;;;;;5039039;28;20044;-71
2023/04/26 12:09:28;;;;;;;4.70;1.77;;;11.90;73.20;;;;;;5022145;28;20071;-71
2023/04/26 12:12:05;;;;;;;7.25;1.73;;;11.70;74.90;;;;;;5038524;28;20052;-71
2023/04/26 12:14:38;;;;;;;8.68;2.00;;;11.70;74.60;;;;;;5038576;28;20528;-70
2023/04/26 12:17:06;;;;;;;8.32;1.98;;;11.50;74.40;;;;;;5038969;28;20044;-70
2023/04/26 12:19:32;;;;;;;4.53;1.48;;;11.40;74.80;;;;;;5038748;28;20045;-70
2023/04/26 12:21:58;;;;;;;5.82;1.77;;;11.30;74.40;;;;;;5038737;28;20059;-71
2023/04/26 12:24:25;;;;;;;6.95;1.45;;;11.20;74.30;;;;;;5038680;28;20397;-70
2023/04/26 12:26:51;;;;;;;6.28;1.70;;;11.10;72.90;;;;;;5038298;28;20523;-70
2023/04/26 12:29:17;;;;;;;7.15;1.55;;;11.10;72.60;;;;;;5038352;28;20045;-70
2023/04/26 12:31:43;;;;;;;5.75;1.50;;;11.00;73.50;;;;;;5038187;28;20041;-70
2023/04/26 12:34:09;;;;;;;11.40;2.67;;;10.90;75.20;;;;;;5038517;28;20040;-70
2023/04/26 12:36:34;;;;;;;7.15;2.13;;;10.90;76.80;;;;;;5021947;28;20036;-70
2023/04/26 12:39:02;;;;;;;4.88;1.80;;;10.70;78.00;;;;;;5021610;28;20048;-70
2023/04/26 12:41:28;;;;;;;6.88;1.70;;;10.60;79.20;;;;;;5038035;28;20501;-70
2023/04/26 12:43:53;;;;;;;4.88;1.75;;;10.60;79.90;;;;;;5038278;28;20044;-70
2023/04/26 12:46:19;;;;;;;7.45;1.95;;;10.50;80.40;;;;;;5037839;28;20087;-71
2023/04/26 12:48:45;;;;;;;6.18;1.70;;;10.40;80.80;;;;;;5037936;28;20040;-71
2023/04/26 12:51:11;;;;;;;7.72;1.90;;;10.40;81.30;;;;;;5038057;28;20139;-71
2023/04/26 12:53:36;;;;;;;9.52;2.15;;;10.50;81.90;;;;;;5037792;28;20509;-71